Time;durP1;ratioP1;P1;durP2;ratioP2;P2;SDS_P1;SDS_P2;PMS_P1;PMS_P2;Temp;Humidity;BMP_temperature;BMP_pressure;BME280_temperature;BME280_humidity;BME280_pressure;Samples;Min_cycle;Max_cycle;Signal;HPM_P1;HPM_P2
2021/01/28 01:25:36;481489.00;1.60;829.96;0.00;0.00;0.62;;;;;9.70;1.00;;;;;;2270372;61;1370;-87
2021/01/28 01:30:30;311100.00;1.04;537.00;0.00;0.00;0.62;;;;;9.80;1.00;;;;;;2270459;61;1395;-86
2021/01/28 01:35:25;472501.00;1.58;814.49;0.00;0.00;0.62;;;;;9.80;1.00;;;;;;2270841;61;1460;-88
2021/01/28 01:40:24;253283.00;0.84;437.60;0.00;0.00;0.62;;;;;9.50;1.00;;;;;;2270224;61;1415;-89
2021/01/28 01:42:52;317045.00;1.06;547.22;86959.00;0.29;151.06;;;;;9.40;1.00;;;;;;2259706;61;1908;-90
2021/01/28 01:45:26;384567.00;1.28;663.28;119336.00;0.40;206.94;;;;;9.30;1.00;;;;;;2256317;61;1005;-89
2021/01/28 01:50:36;469566.00;1.57;809.44;85548.00;0.29;148.62;;;;;9.80;1.00;;;;;;2271012;61;1396;-88
2021/01/28 01:53:09;552297.00;1.84;951.92;86279.00;0.29;149.88;;;;;9.80;1.00;;;;;;2267949;61;1326;-88
2021/01/28 01:55:38;319344.00;1.06;551.17;85884.00;0.29;149.20;;;;;9.70;1.00;;;;;;2260264;61;1046;-89
2021/01/28 01:58:08;356157.00;1.19;614.44;88175.00;0.29;153.16;;;;;9.50;1.00;;;;;;2260169;61;1070;-87
2021/01/28 02:13:03;422694.00;1.41;728.82;77858.00;0.26;135.34;;;;;9.00;1.00;;;;;;2274846;61;1368;-90
2021/01/28 02:23:08;358558.00;1.20;618.57;86044.00;0.29;149.48;;;;;9.30;1.00;;;;;;2273919;61;1982;-88
2021/01/28 02:25:38;171326.00;0.57;296.55;91778.00;0.31;159.38;;;;;9.50;1.00;;;;;;2264167;61;937;-87
2021/01/28 02:28:07;111313.00;0.37;193.10;0.00;0.00;0.62;;;;;9.40;1.00;;;;;;2264143;61;1053;-89
2021/01/28 02:35:50;669191.00;2.23;1153.85;0.00;0.00;0.62;;;;;9.60;1.00;;;;;;2368379;39;1927;-87
2021/01/28 02:43:14;463101.00;1.54;798.32;0.00;0.00;0.62;;;;;9.60;1.00;;;;;;2272726;61;1970;-87
2021/01/28 02:48:11;613394.00;2.04;1057.35;0.00;0.00;0.62;;;;;9.50;1.00;;;;;;2274036;61;1366;-86
2021/01/28 02:50:38;147776.00;0.49;255.97;0.00;0.00;0.62;;;;;9.90;1.00;;;;;;2259942;61;946;-86
2021/01/28 02:55:35;322334.00;1.07;556.31;0.00;0.00;0.62;;;;;10.50;1.00;;;;;;2274169;61;1436;-89
2021/01/28 02:58:01;137237.00;0.46;237.81;0.00;0.00;0.62;;;;;10.80;1.00;;;;;;2267848;61;1002;-86
2021/01/28 03:00:31;33212.00;0.11;58.14;0.00;0.00;0.62;;;;;10.30;1.00;;;;;;2261264;61;1092;-86
2021/01/28 03:05:25;542169.00;1.81;934.46;53963.00;0.18;94.04;;;;;10.10;1.00;;;;;;2274032;61;1453;-87
2021/01/28 03:07:52;29337.00;0.10;51.44;0.00;0.00;0.62;;;;;10.10;1.00;;;;;;2262140;61;938;-88
2021/01/28 03:10:21;38505.00;0.13;67.30;0.00;0.00;0.62;;;;;10.10;1.00;;;;;;2267980;61;1081;-88
2021/01/28 03:12:48;41323.00;0.14;72.18;0.00;0.00;0.62;;;;;10.10;1.00;;;;;;2267642;61;1299;-89
2021/01/28 03:15:18;90773.00;0.30;157.64;0.00;0.00;0.62;;;;;10.20;1.00;;;;;;2263954;61;1025;-88
2021/01/28 03:17:46;0.00;0.00;0.62;0.00;0.00;0.62;;;;;10.40;1.00;;;;;;2259905;61;951;-87
2021/01/28 03:20:14;99624.00;0.33;172.92;0.00;0.00;0.62;;;;;10.60;1.00;;;;;;2259929;61;995;-89
2021/01/28 03:22:41;75762.00;0.25;131.72;0.00;0.00;0.62;;;;;10.90;1.00;;;;;;2259926;61;1999;-89
2021/01/28 03:25:10;13194.00;0.04;23.48;0.00;0.00;0.62;;;;;11.20;1.00;;;;;;2259880;61;946;-91
2021/01/28 03:27:36;338046.00;1.13;583.32;92124.00;0.31;159.98;;;;;11.60;1.00;;;;;;2260776;61;1013;-89
2021/01/28 03:30:06;202289.00;0.67;349.86;90481.00;0.30;157.14;;;;;11.70;1.00;;;;;;2256018;61;1018;-88
2021/01/28 03:32:32;279173.00;0.93;482.12;87506.00;0.29;152.00;;;;;11.80;1.00;;;;;;2256024;61;946;-89
2021/01/28 05:48:42;4441.00;0.01;8.32;0.00;0.00;0.62;;;;;10.30;1.00;;;;;;2421460;40;1814;31
2021/01/28 14:05:32;189135.00;0.63;327.22;82413.00;0.27;143.21;;;;;11.00;1.00;;;;;;2420896;40;1840;31
2021/01/28 16:14:23;17530.00;0.06;30.99;0.00;0.00;0.62;;;;;12.40;1.00;;;;;;2279398;61;1013;-87
2021/01/28 16:16:50;81318.00;0.27;141.31;13939.00;0.05;24.77;;;;;12.50;1.00;;;;;;2277754;61;1035;-89
2021/01/28 16:19:17;0.00;0.00;0.62;0.00;0.00;0.62;;;;;12.50;1.00;;;;;;2270697;61;831;-89
2021/01/28 16:21:43;148.00;0.00;0.88;0.00;0.00;0.62;;;;;12.40;1.00;;;;;;2276544;61;1064;-86
2021/01/28 16:24:10;30167.00;0.10;52.87;0.00;0.00;0.62;;;;;12.60;1.00;;;;;;2272386;61;2006;-86
2021/01/28 16:26:37;0.00;0.00;0.62;0.00;0.00;0.62;;;;;12.50;1.00;;;;;;2272502;61;1020;-86
2021/01/28 16:29:04;1182.00;0.00;2.67;0.00;0.00;0.62;;;;;12.10;1.00;;;;;;2272599;61;996;-86
2021/01/28 16:31:31;14411.00;0.05;25.59;0.00;0.00;0.62;;;;;11.90;1.00;;;;;;2272568;61;978;-86
2021/01/28 16:33:58;20078.00;0.07;35.41;0.00;0.00;0.62;;;;;11.80;1.70;;;;;;2272512;61;1329;-86
2021/01/28 16:36:24;29669.00;0.10;52.01;0.00;0.00;0.62;;;;;11.80;2.50;;;;;;2272531;61;1075;-87
2021/01/28 16:38:52;11929.00;0.04;21.29;0.00;0.00;0.62;;;;;11.90;1.50;;;;;;2269181;61;1054;-86
2021/01/28 16:41:19;0.00;0.00;0.62;0.00;0.00;0.62;;;;;11.80;2.00;;;;;;2273108;61;1005;-88
2021/01/28 16:43:46;0.00;0.00;0.62;0.00;0.00;0.62;;;;;11.90;1.60;;;;;;2276364;61;2010;-88
2021/01/28 16:46:13;0.00;0.00;0.62;0.00;0.00;0.62;;;;;11.80;1.80;;;;;;2272406;61;933;-88
2021/01/28 16:48:40;73229.00;0.24;127.34;0.00;0.00;0.62;;;;;11.70;2.80;;;;;;2272527;61;1128;-87
2021/01/28 16:51:07;13310.00;0.04;23.68;0.00;0.00;0.62;;;;;11.60;3.30;;;;;;2265719;61;970;-87
2021/01/28 16:53:34;123938.00;0.41;214.87;0.00;0.00;0.62;;;;;11.60;3.50;;;;;;2263892;61;1310;-88
2021/01/28 16:56:00;0.00;0.00;0.62;0.00;0.00;0.62;;;;;11.60;3.00;;;;;;2252275;61;974;-87
2021/01/28 16:58:27;2984.00;0.01;5.79;0.00;0.00;0.62;;;;;11.60;3.30;;;;;;2248970;61;978;-88
2021/01/28 17:00:53;66974.00;0.22;116.53;0.00;0.00;0.62;;;;;11.70;2.20;;;;;;2252243;61;1021;-87
2021/01/28 17:03:19;16242.00;0.05;28.76;0.00;0.00;0.62;;;;;11.50;3.30;;;;;;2253095;61;1993;-86
2021/01/28 17:05:47;8298.00;0.03;15.00;0.00;0.00;0.62;;;;;11.60;3.30;;;;;;2253670;61;956;-87
2021/01/28 17:08:13;3569.00;0.01;6.81;0.00;0.00;0.62;;;;;11.60;2.40;;;;;;2256973;61;968;-87
2021/01/28 17:10:40;19611.00;0.07;34.60;0.00;0.00;0.62;;;;;11.60;3.30;;;;;;2260984;61;1031;-86
2021/01/28 17:13:06;0.00;0.00;0.62;0.00;0.00;0.62;;;;;11.70;2.60;;;;;;2262545;61;1529;-85
2021/01/28 17:15:33;0.00;0.00;0.62;0.00;0.00;0.62;;;;;11.60;2.60;;;;;;2264177;61;1045;-84
2021/01/28 17:17:59;35440.00;0.12;62.00;0.00;0.00;0.62;;;;;11.60;3.20;;;;;;2264267;61;1035;-85
2021/01/28 17:20:26;0.00;0.00;0.62;0.00;0.00;0.62;;;;;11.60;3.40;;;;;;2264509;61;1047;-86
2021/01/28 17:22:53;15787.00;0.05;27.97;0.00;0.00;0.62;;;;;11.70;2.10;;;;;;2264247;61;2000;-85
2021/01/28 17:25:24;0.00;0.00;0.62;0.00;0.00;0.62;;;;;11.60;3.70;;;;;;2264351;61;939;-85
2021/01/28 17:27:51;24506.00;0.08;43.07;0.00;0.00;0.62;;;;;11.80;2.90;;;;;;2263819;61;1121;-86
2021/01/28 17:30:20;18976.00;0.06;33.50;0.00;0.00;0.62;;;;;11.80;3.40;;;;;;2257546;61;963;-87
2021/01/28 17:32:47;0.00;0.00;0.62;0.00;0.00;0.62;;;;;12.10;1.00;;;;;;2266258;61;1310;-86
2021/01/28 17:35:14;9386.00;0.03;16.89;0.00;0.00;0.62;;;;;12.20;1.00;;;;;;2276682;61;979;-87
2021/01/28 17:37:40;15747.00;0.05;27.90;0.00;0.00;0.62;;;;;12.00;1.90;;;;;;2276230;61;986;-85
2021/01/28 17:40:09;0.00;0.00;0.62;0.00;0.00;0.62;;;;;11.90;2.20;;;;;;2276762;61;1014;-86
2021/01/28 17:42:36;19074.00;0.06;33.67;0.00;0.00;0.62;;;;;11.90;1.60;;;;;;2272930;61;1303;-86
2021/01/28 17:45:04;24322.00;0.08;42.75;0.00;0.00;0.62;;;;;11.90;1.70;;;;;;2266323;61;2013;-85
2021/01/28 17:47:30;0.00;0.00;0.62;0.00;0.00;0.62;;;;;11.90;1.90;;;;;;2264090;61;955;-86
2021/01/28 17:49:57;0.00;0.00;0.62;0.00;0.00;0.62;;;;;11.90;2.60;;;;;;2264172;61;1565;-87
2021/01/28 17:52:23;0.00;0.00;0.62;0.00;0.00;0.62;;;;;12.10;1.10;;;;;;2264188;61;1280;-86
2021/01/28 17:54:50;18840.00;0.06;33.26;0.00;0.00;0.62;;;;;12.10;1.20;;;;;;2264070;61;1134;-86
2021/01/28 17:57:17;0.00;0.00;0.62;0.00;0.00;0.62;;;;;12.30;1.00;;;;;;2264179;61;838;-87
2021/01/28 17:59:44;25510.00;0.09;44.81;0.00;0.00;0.62;;;;;12.30;1.00;;;;;;2264097;61;918;-86
2021/01/28 18:02:11;0.00;0.00;0.62;0.00;0.00;0.62;;;;;12.40;1.00;;;;;;2264083;61;1293;-86
2021/01/28 18:04:37;0.00;0.00;0.62;0.00;0.00;0.62;;;;;12.60;1.00;;;;;;2265482;61;1903;-86
2021/01/28 18:07:04;0.00;0.00;0.62;0.00;0.00;0.62;;;;;12.40;1.00;;;;;;2276704;61;1106;-87
2021/01/28 18:09:31;25896.00;0.09;45.48;0.00;0.00;0.62;;;;;12.30;1.00;;;;;;2276589;61;1022;-86
2021/01/28 18:11:58;0.00;0.00;0.62;0.00;0.00;0.62;;;;;12.20;1.00;;;;;;2276515;61;1386;-87
2021/01/28 18:14:26;25366.00;0.08;44.56;0.00;0.00;0.62;;;;;12.30;1.00;;;;;;2276638;61;1620;-86
2021/01/28 18:16:53;115953.00;0.39;201.10;0.00;0.00;0.62;;;;;12.20;1.00;;;;;;2276652;61;1067;-87
2021/01/28 18:19:19;0.00;0.00;0.62;0.00;0.00;0.62;;;;;12.10;1.00;;;;;;2276634;61;1717;-87
2021/01/28 18:21:47;18521.00;0.06;32.71;0.00;0.00;0.62;;;;;12.20;1.00;;;;;;2276681;61;1138;-86
2021/01/28 18:24:14;13505.00;0.05;24.02;0.00;0.00;0.62;;;;;12.20;1.00;;;;;;2276606;61;1911;-86
2021/01/28 18:26:42;330045.00;1.10;569.56;81320.00;0.27;141.32;;;;;12.00;1.50;;;;;;2276603;61;1004;-87
2021/01/28 18:29:10;0.00;0.00;0.62;0.00;0.00;0.62;;;;;11.90;1.00;;;;;;2276601;61;994;-86
2021/01/28 18:31:38;28830.00;0.10;50.56;0.00;0.00;0.62;;;;;11.80;2.20;;;;;;2276644;61;915;-86
2021/01/28 18:34:05;25616.00;0.09;44.99;0.00;0.00;0.62;;;;;11.90;2.10;;;;;;2276642;61;1404;-86
2021/01/28 18:36:32;0.00;0.00;0.62;0.00;0.00;0.62;;;;;12.00;1.80;;;;;;2276656;61;1620;-88
2021/01/28 18:38:59;0.00;0.00;0.62;0.00;0.00;0.62;;;;;12.10;1.00;;;;;;2276624;61;1711;-86
2021/01/28 18:41:25;127642.00;0.43;221.26;0.00;0.00;0.62;;;;;12.10;1.00;;;;;;2276688;61;1033;-87
2021/01/28 18:43:52;7233.00;0.02;13.16;0.00;0.00;0.62;;;;;12.20;1.00;;;;;;2276537;61;1911;-86
2021/01/28 18:46:19;0.00;0.00;0.62;0.00;0.00;0.62;;;;;12.50;1.00;;;;;;2276536;61;1035;-86
2021/01/28 18:48:52;0.00;0.00;0.62;0.00;0.00;0.62;;;;;12.50;1.00;;;;;;2276536;61;1106;-86
2021/01/28 18:51:19;0.00;0.00;0.62;0.00;0.00;0.62;;;;;12.30;1.00;;;;;;2276527;61;1077;-86
2021/01/28 18:53:46;81954.00;0.27;142.41;0.00;0.00;0.62;;;;;12.40;1.00;;;;;;2276422;61;1785;-86
2021/01/28 18:56:12;0.00;0.00;0.62;0.00;0.00;0.62;;;;;12.40;1.00;;;;;;2276521;61;1115;-86
2021/01/28 18:58:39;0.00;0.00;0.62;0.00;0.00;0.62;;;;;12.50;1.00;;;;;;2276506;61;1736;-87
2021/01/28 19:01:06;41216.00;0.14;71.99;0.00;0.00;0.62;;;;;12.60;1.00;;;;;;2276551;61;1039;-87
2021/01/28 19:03:32;9682.00;0.03;17.40;0.00;0.00;0.62;;;;;12.60;1.00;;;;;;2276446;61;1912;-87
2021/01/28 19:06:01;65459.00;0.22;113.91;0.00;0.00;0.62;;;;;12.60;1.00;;;;;;2276512;61;1078;-86
2021/01/28 19:08:29;0.00;0.00;0.62;0.00;0.00;0.62;;;;;12.60;1.00;;;;;;2276485;61;1150;-87
2021/01/28 19:10:56;0.00;0.00;0.62;0.00;0.00;0.62;;;;;12.60;1.00;;;;;;2276494;61;1060;-86
2021/01/28 19:13:23;14727.00;0.05;26.14;0.00;0.00;0.62;;;;;12.50;1.00;;;;;;2276447;61;1776;-86
2021/01/28 19:15:50;7465.00;0.02;13.56;0.00;0.00;0.62;;;;;12.50;1.00;;;;;;2276625;61;1023;-88
2021/01/28 19:18:17;0.00;0.00;0.62;0.00;0.00;0.62;;;;;12.50;1.00;;;;;;2277247;61;1109;-86
2021/01/28 19:20:43;0.00;0.00;0.62;0.00;0.00;0.62;;;;;12.40;1.00;;;;;;2277173;61;1722;-86
2021/01/28 19:23:12;665.00;0.00;1.77;0.00;0.00;0.62;;;;;12.40;1.00;;;;;;2277119;61;1992;-86
2021/01/28 19:25:40;123805.00;0.41;214.65;56111.00;0.19;97.75;;;;;12.30;1.00;;;;;;2277162;61;1075;-86
2021/01/28 19:28:07;0.00;0.00;0.62;0.00;0.00;0.62;;;;;12.60;1.00;;;;;;2277090;61;952;-86
2021/01/28 19:30:34;49218.00;0.16;85.83;0.00;0.00;0.62;;;;;12.30;1.00;;;;;;2277014;61;1731;-87
2021/01/28 19:33:01;20502.00;0.07;36.14;0.00;0.00;0.62;;;;;12.20;1.00;;;;;;2277168;61;1296;-87
2021/01/28 19:35:30;6051.00;0.02;11.11;0.00;0.00;0.62;;;;;12.30;1.00;;;;;;2277218;61;1050;-86
2021/01/28 19:37:57;64386.00;0.21;112.06;0.00;0.00;0.62;;;;;12.60;1.00;;;;;;2277279;61;1018;-86
2021/01/28 19:40:25;0.00;0.00;0.62;0.00;0.00;0.62;;;;;12.80;1.00;;;;;;2277263;61;1139;-87
2021/01/28 19:42:52;45634.00;0.15;79.63;0.00;0.00;0.62;;;;;12.80;1.00;;;;;;2277203;61;1400;-85
2021/01/28 19:45:20;0.00;0.00;0.62;0.00;0.00;0.62;;;;;12.70;1.00;;;;;;2277157;61;2005;-87
2021/01/28 19:47:47;0.00;0.00;0.62;0.00;0.00;0.62;;;;;12.80;1.00;;;;;;2277159;61;1032;-87
2021/01/28 19:50:17;0.00;0.00;0.62;0.00;0.00;0.62;;;;;12.80;1.00;;;;;;2277184;61;997;-87
2021/01/28 19:52:44;0.00;0.00;0.62;0.00;0.00;0.62;;;;;12.60;1.00;;;;;;2277044;61;1388;-86
2021/01/28 19:55:18;58998.00;0.20;102.74;0.00;0.00;0.62;;;;;12.70;1.00;;;;;;2277029;61;1150;-85
2021/01/28 19:57:47;0.00;0.00;0.62;0.00;0.00;0.62;;;;;12.70;1.00;;;;;;2277102;61;1055;-87
2021/01/28 20:00:16;0.00;0.00;0.62;0.00;0.00;0.62;;;;;12.80;1.00;;;;;;2277017;61;1088;-87
2021/01/28 20:02:42;0.00;0.00;0.62;0.00;0.00;0.62;;;;;13.10;1.00;;;;;;2277167;61;1315;-88
2021/01/28 20:05:10;0.00;0.00;0.62;0.00;0.00;0.62;;;;;13.10;1.00;;;;;;2277114;61;2001;-87
2021/01/28 20:07:37;13938.00;0.05;24.77;0.00;0.00;0.62;;;;;13.20;1.00;;;;;;2277122;61;1047;-88
2021/01/28 20:10:05;0.00;0.00;0.62;0.00;0.00;0.62;;;;;13.20;1.00;;;;;;2277061;61;1059;-86
2021/01/28 20:12:31;19206.00;0.06;33.90;0.00;0.00;0.62;;;;;13.30;1.00;;;;;;2277080;61;1282;-87
2021/01/28 20:14:59;6759.00;0.02;12.33;0.00;0.00;0.62;;;;;13.50;1.00;;;;;;2276969;61;1045;-87
2021/01/28 20:17:25;5312.00;0.02;9.83;0.00;0.00;0.62;;;;;13.80;1.00;;;;;;2277063;61;1156;-87
2021/01/28 20:19:52;69330.00;0.23;120.60;0.00;0.00;0.62;;;;;14.00;1.00;;;;;;2277125;61;1013;-88
2021/01/28 20:22:18;0.00;0.00;0.62;0.00;0.00;0.62;;;;;14.00;1.00;;;;;;2277167;61;1406;-86
2021/01/28 20:24:46;24949.00;0.08;43.84;0.00;0.00;0.62;;;;;13.80;1.00;;;;;;2277070;61;2001;-87
2021/01/28 20:27:13;0.00;0.00;0.62;0.00;0.00;0.62;;;;;13.80;1.00;;;;;;2277089;61;1027;-88
2021/01/28 20:29:39;0.00;0.00;0.62;0.00;0.00;0.62;;;;;13.90;1.00;;;;;;2277104;61;1173;-87
2021/01/28 20:32:07;23620.00;0.08;41.54;0.00;0.00;0.62;;;;;13.90;1.00;;;;;;2277049;61;1359;-86
2021/01/28 20:34:33;0.00;0.00;0.62;0.00;0.00;0.62;;;;;14.00;1.00;;;;;;2276999;61;1050;-88
2021/01/28 20:37:00;0.00;0.00;0.62;0.00;0.00;0.62;;;;;13.90;1.00;;;;;;2277065;61;1090;-87
2021/01/28 20:39:26;58021.00;0.19;101.06;0.00;0.00;0.62;;;;;13.80;1.00;;;;;;2277004;61;1055;-87
2021/01/28 20:41:53;0.00;0.00;0.62;0.00;0.00;0.62;;;;;13.70;1.00;;;;;;2276996;61;1116;-87
2021/01/28 20:46:54;27594.00;0.09;48.42;0.00;0.00;0.62;;;;;13.30;1.00;;;;;;2509488;55;3618;31
2021/01/28 23:20:29;0.00;0.00;0.62;0.00;0.00;0.62;;;;;13.60;1.00;;;;;;2279552;61;903;-91
2021/01/28 23:42:58;30611.00;0.10;53.64;0.00;0.00;0.62;;;;;13.50;1.00;;;;;;2519355;55;3895;31
